createdAt,value
2022-09-25T09:18:56.874Z,56.40
2022-09-25T09:21:51.321Z,55.96
2022-09-25T09:24:26.870Z,56.13
2022-09-25T09:27:03.571Z,55.96
2022-09-25T09:29:36.482Z,56.09
2022-09-25T09:32:21.938Z,55.89
2022-09-25T09:35:07.002Z,56.18
2022-09-25T09:37:58.478Z,55.76
2022-09-25T09:40:54.032Z,55.92
2022-09-25T09:43:38.705Z,55.76
2022-09-25T09:46:21.396Z,55.80
2022-09-25T09:49:16.495Z,56.00
2022-09-25T09:51:52.862Z,55.63
2022-09-25T09:54:35.986Z,55.31
2022-09-25T09:57:11.027Z,55.10
2022-09-25T09:59:46.210Z,55.09
2022-09-25T10:02:40.839Z,55.14
2022-09-25T10:05:24.590Z,54.99
2022-09-25T10:07:52.078Z,55.29
2022-09-25T10:10:19.821Z,55.95
2022-09-25T10:12:50.987Z,55.49
2022-09-25T10:15:33.745Z,55.25
2022-09-25T10:18:03.064Z,55.70
2022-09-25T10:20:39.783Z,55.56
2022-09-25T10:23:22.311Z,56.04
2022-09-25T10:25:52.454Z,55.10
2022-09-25T10:28:27.528Z,54.95
2022-09-25T10:30:54.732Z,54.81
2022-09-25T10:33:27.150Z,54.74
2022-09-25T10:35:54.915Z,54.91
2022-09-25T10:38:34.545Z,55.22
2022-09-25T10:41:12.187Z,54.42
2022-09-25T10:43:56.041Z,54.45
2022-09-25T10:46:52.167Z,54.63
2022-09-25T10:49:42.997Z,54.29
2022-09-25T10:52:11.951Z,54.25
2022-09-25T10:54:43.870Z,54.70
2022-09-25T10:57:23.227Z,54.03
2022-09-25T10:59:51.479Z,54.43
2022-09-25T11:02:48.408Z,54.11
2022-09-25T11:05:19.967Z,53.87
2022-09-25T11:07:55.322Z,54.48
2022-09-25T11:10:37.033Z,53.70
2022-09-25T11:13:09.387Z,53.85
2022-09-25T11:15:39.124Z,54.23
2022-09-25T11:18:09.044Z,53.90
2022-09-25T11:20:36.805Z,53.96
2022-09-25T11:23:21.935Z,53.87
2022-09-25T11:26:06.177Z,54.48
2022-09-25T11:29:04.563Z,54.67
2022-09-25T11:31:42.766Z,53.78
2022-09-25T11:34:19.298Z,54.13
2022-09-25T11:37:00.418Z,53.14
2022-09-25T11:39:57.629Z,53.88
2022-09-25T11:42:49.230Z,53.84
2022-09-25T11:45:24.562Z,54.12
2022-09-25T11:48:05.375Z,53.71
2022-09-25T11:50:47.582Z,53.90
2022-09-25T11:53:14.322Z,53.01
2022-09-25T11:55:47.048Z,53.33
2022-09-25T11:58:33.246Z,53.66
2022-09-25T12:01:06.187Z,52.72
2022-09-25T12:03:42.078Z,52.63
2022-09-25T12:06:28.794Z,52.94
2022-09-25T12:09:19.853Z,52.80
2022-09-25T12:11:59.010Z,53.09
2022-09-25T12:14:31.762Z,52.44
2022-09-25T12:17:17.810Z,52.72
2022-09-25T12:20:13.227Z,52.79
2022-09-25T12:23:14.291Z,52.48
2022-09-25T12:25:48.063Z,52.05
2022-09-25T12:28:29.377Z,52.17
2022-09-25T12:30:57.100Z,51.72
2022-09-25T12:33:28.056Z,52.13
2022-09-25T12:36:04.204Z,52.57
2022-09-25T12:38:55.446Z,52.62
2022-09-25T12:41:41.406Z,52.60
2022-09-25T12:44:26.582Z,51.95
2022-09-25T12:47:02.918Z,52.16
2022-09-25T12:49:40.840Z,52.06
2022-09-25T12:52:12.968Z,51.18
2022-09-25T12:55:07.382Z,50.93
2022-09-25T12:57:48.299Z,50.79
2022-09-25T13:00:21.079Z,50.47
2022-09-25T13:02:54.566Z,50.70
2022-09-25T13:05:34.770Z,49.95
2022-09-25T13:08:24.422Z,50.45
2022-09-25T13:11:02.181Z,50.41
2022-09-25T13:13:36.369Z,50.42
2022-09-25T13:16:03.310Z,49.90
2022-09-25T13:18:31.233Z,48.85
2022-09-25T13:21:32.571Z,50.22
2022-09-25T13:24:00.239Z,49.12
2022-09-25T13:26:27.803Z,48.44
2022-09-25T13:29:23.860Z,50.03
2022-09-25T13:31:53.544Z,49.43
2022-09-25T13:34:23.039Z,47.80
2022-09-25T13:36:54.152Z,46.85
2022-09-25T13:40:00.938Z,48.50
2022-09-25T13:42:40.036Z,47.21
2022-09-25T13:45:33.986Z,47.70
2022-09-25T13:48:26.365Z,47.80
2022-09-25T13:51:18.526Z,46.90
2022-09-25T13:53:56.540Z,46.04
2022-09-25T13:56:25.716Z,44.16
2022-09-25T13:59:19.395Z,45.98
2022-09-25T14:01:49.178Z,42.93
2022-09-25T14:04:15.648Z,42.84
2022-09-25T14:06:43.132Z,46.96
2022-09-25T14:09:12.761Z,45.26
2022-09-25T14:11:42.592Z,44.46
2022-09-25T14:14:22.660Z,45.73
2022-09-25T14:16:52.236Z,44.95
2022-09-25T14:19:26.996Z,45.37
2022-09-25T14:21:54.004Z,45.05
2022-09-25T14:24:21.839Z,45.74
2022-09-25T14:26:51.345Z,45.42
2022-09-25T14:29:22.915Z,44.96
2022-09-25T14:32:50.353Z,46.01
2022-09-25T14:35:25.081Z,45.64
2022-09-25T14:38:19.419Z,46.03
2022-09-25T14:41:31.232Z,46.18
2022-09-25T14:44:17.750Z,45.70
2022-09-25T14:46:48.920Z,45.02
2022-09-25T14:49:26.669Z,46.01
2022-09-25T14:51:57.779Z,44.71
2022-09-25T14:54:29.299Z,44.46
2022-09-25T14:56:58.485Z,43.58
2022-09-25T14:59:39.745Z,45.10
2022-09-25T15:02:20.156Z,44.82
2022-09-25T15:04:46.826Z,44.05
2022-09-25T15:07:17.317Z,44.45
2022-09-25T15:09:49.343Z,43.91
2022-09-25T15:12:30.985Z,45.35
2022-09-25T15:15:10.201Z,45.10
2022-09-25T15:20:15.517Z,44.38
2022-09-25T15:22:47.167Z,44.24
2022-09-25T15:25:26.443Z,45.20
2022-09-25T15:27:53.766Z,45.07
2022-09-25T15:30:20.718Z,45.13
2022-09-25T15:32:51.858Z,45.44
2022-09-25T15:35:24.881Z,45.37
2022-09-25T15:38:10.722Z,45.81
2022-09-25T15:40:38.134Z,45.10
2022-09-25T15:43:13.197Z,46.04
2022-09-25T15:45:55.301Z,45.89
2022-09-25T15:48:29.301Z,45.74
2022-09-25T15:50:57.649Z,45.77
2022-09-25T15:53:30.543Z,45.93
2022-09-25T15:56:14.133Z,46.38
2022-09-25T15:58:51.626Z,46.27
2022-09-25T16:01:42.561Z,46.39
2022-09-25T16:04:36.546Z,46.84
2022-09-25T16:07:24.318Z,47.01
2022-09-25T16:09:54.175Z,46.69
2022-09-25T16:12:42.046Z,46.98
2022-09-25T16:15:26.729Z,47.33
2022-09-25T16:18:05.424Z,47.35
2022-09-25T16:20:35.948Z,47.32
2022-09-25T16:23:05.797Z,47.53
2022-09-25T16:25:38.078Z,47.48
2022-09-25T16:28:16.823Z,47.79
2022-09-25T16:31:00.869Z,47.87
2022-09-25T16:33:33.784Z,48.24
2022-09-25T16:36:18.792Z,48.27
2022-09-25T16:39:13.215Z,47.90
2022-09-25T16:41:48.676Z,48.26
2022-09-25T16:44:19.605Z,48.62
2022-09-25T16:46:52.348Z,49.09
2022-09-25T16:49:20.049Z,49.08
2022-09-25T16:51:48.377Z,49.03
2022-09-25T16:54:17.395Z,49.02
2022-09-25T16:56:46.001Z,49.43
2022-09-25T16:59:24.451Z,49.49
2022-09-25T17:01:53.353Z,49.58
2022-09-25T17:04:23.896Z,49.71
2022-09-25T17:06:50.692Z,50.70
2022-09-25T17:09:18.249Z,52.87
2022-09-25T17:11:47.799Z,53.05
2022-09-25T17:14:25.608Z,52.36
2022-09-25T17:16:54.638Z,51.60
2022-09-25T17:19:21.996Z,52.78
2022-09-25T17:21:51.456Z,52.01
2022-09-25T17:24:20.371Z,50.94
2022-09-25T17:26:47.400Z,51.04
2022-09-25T17:29:14.092Z,52.79
2022-09-25T17:31:40.834Z,52.21
2022-09-25T17:34:30.160Z,53.44
2022-09-25T17:36:57.943Z,52.20
2022-09-25T17:39:24.508Z,52.34
2022-09-25T17:41:50.970Z,50.88
2022-09-25T17:44:19.367Z,51.35
2022-09-25T17:46:46.020Z,51.04
2022-09-25T17:49:12.776Z,52.69
2022-09-25T17:51:40.060Z,52.08
2022-09-25T17:54:06.679Z,52.36
2022-09-25T17:56:37.776Z,52.54
2022-09-25T17:59:05.672Z,53.38
2022-09-25T18:01:38.367Z,51.54
2022-09-25T18:04:25.588Z,51.78
2022-09-25T18:06:52.236Z,52.34
2022-09-25T18:09:19.494Z,50.93
2022-09-25T18:11:46.071Z,52.19
2022-09-25T18:14:13.383Z,50.87
2022-09-25T18:16:42.608Z,52.70
2022-09-25T18:19:38.908Z,52.50
2022-09-25T18:22:18.973Z,52.40
2022-09-25T18:24:47.047Z,53.00
2022-09-25T18:27:15.572Z,53.24
2022-09-25T18:29:44.665Z,52.90
2022-09-25T18:32:11.642Z,52.31
2022-09-25T18:34:38.136Z,53.27
2022-09-25T18:37:04.620Z,51.02
2022-09-25T18:39:31.293Z,50.44
2022-09-25T18:41:57.778Z,52.12
2022-09-25T18:44:24.214Z,50.66
2022-09-25T18:46:51.865Z,50.41
2022-09-25T18:49:19.255Z,50.65
2022-09-25T18:51:46.025Z,50.98
2022-09-25T18:54:14.227Z,52.08
2022-09-25T18:56:41.641Z,50.89
2022-09-25T18:59:08.460Z,50.77
2022-09-25T19:01:35.905Z,51.87
2022-09-25T19:04:02.682Z,52.41
2022-09-25T19:06:29.150Z,50.57
2022-09-25T19:08:57.244Z,50.59
2022-09-25T19:11:26.038Z,50.95
2022-09-25T19:13:53.083Z,52.14
2022-09-25T19:16:20.606Z,52.75
2022-09-25T19:18:47.244Z,53.35
2022-09-25T19:21:15.274Z,51.13
2022-09-25T19:23:43.292Z,53.91
2022-09-25T19:26:14.975Z,53.34
2022-09-25T19:28:42.236Z,53.56
2022-09-25T19:31:14.973Z,53.21
2022-09-25T19:33:41.687Z,53.99
2022-09-25T19:36:10.708Z,51.86
2022-09-25T19:38:38.725Z,52.65
2022-09-25T19:41:12.252Z,53.76
2022-09-25T19:43:39.617Z,53.60
2022-09-25T19:46:06.895Z,52.83
2022-09-25T19:48:33.697Z,50.79
2022-09-25T19:51:06.213Z,51.52
2022-09-25T19:53:33.117Z,53.68
2022-09-25T19:55:59.889Z,53.56
2022-09-25T19:58:26.401Z,53.90
2022-09-25T20:00:54.175Z,51.98
2022-09-25T20:03:20.693Z,52.42
2022-09-25T20:05:49.002Z,50.86
2022-09-25T20:08:15.941Z,51.55
2022-09-25T20:10:42.522Z,51.00
2022-09-25T20:13:10.105Z,50.96
2022-09-25T20:15:36.903Z,53.08
2022-09-25T20:18:03.508Z,52.45
2022-09-25T20:20:29.976Z,51.00
2022-09-25T20:22:57.181Z,51.48
2022-09-25T20:25:25.028Z,54.83
2022-09-25T20:27:52.389Z,54.12
2022-09-25T20:30:19.267Z,53.61
2022-09-25T20:32:46.055Z,52.95
2022-09-25T20:35:13.428Z,54.48
2022-09-25T20:37:40.060Z,55.86
2022-09-25T20:40:06.601Z,53.06
2022-09-25T20:42:34.060Z,54.38
2022-09-25T20:45:00.680Z,57.19
2022-09-25T20:47:30.288Z,53.67
2022-09-25T20:49:57.459Z,56.44
2022-09-25T20:52:23.944Z,56.51
2022-09-25T20:54:50.489Z,56.18
2022-09-25T20:57:16.995Z,53.45
2022-09-25T20:59:43.520Z,56.34
2022-09-25T21:02:10.487Z,54.30
2022-09-25T21:04:37.162Z,55.20
2022-09-25T21:07:03.881Z,53.75
2022-09-25T21:09:31.285Z,53.24
2022-09-25T21:11:57.849Z,56.72
2022-09-25T21:14:27.305Z,53.27
2022-09-25T21:16:56.383Z,56.36
2022-09-25T21:19:23.681Z,55.81
2022-09-25T21:21:50.495Z,55.72
2022-09-25T21:24:19.819Z,55.47
2022-09-25T21:26:46.995Z,52.89
2022-09-25T21:29:16.063Z,54.69
2022-09-25T21:31:48.408Z,56.74
2022-09-25T21:34:16.396Z,55.85
2022-09-25T21:36:43.827Z,56.23
2022-09-25T21:39:11.004Z,56.33
2022-09-25T21:41:37.644Z,55.17
2022-09-25T21:44:05.751Z,53.60
2022-09-25T21:46:33.663Z,53.81
2022-09-25T21:49:03.544Z,54.67
2022-09-25T21:51:36.014Z,52.53
2022-09-25T21:54:02.861Z,55.16
2022-09-25T21:56:31.606Z,55.13
2022-09-25T21:59:00.996Z,54.05
2022-09-25T22:01:33.535Z,54.64
2022-09-25T22:04:00.137Z,55.26
2022-09-25T22:06:33.695Z,54.15
2022-09-25T22:09:12.360Z,54.51
2022-09-25T22:11:39.772Z,52.79
2022-09-25T22:14:09.802Z,54.79
2022-09-25T22:16:41.350Z,52.74
2022-09-25T22:19:18.790Z,53.96
2022-09-25T22:21:47.531Z,54.81
2022-09-25T22:24:14.580Z,53.96
2022-09-25T22:26:43.084Z,54.68
2022-09-25T22:29:10.567Z,54.89
2022-09-25T22:31:44.346Z,55.43
2022-09-25T22:34:26.017Z,55.43
2022-09-25T22:36:58.721Z,53.88
2022-09-25T22:39:26.564Z,56.19
2022-09-25T22:41:53.934Z,56.20
2022-09-25T22:44:20.982Z,55.95
2022-09-25T22:46:47.617Z,55.89
2022-09-25T22:49:14.116Z,54.10
2022-09-25T22:51:40.619Z,55.73
2022-09-25T22:54:07.402Z,55.83
2022-09-25T22:56:35.301Z,55.47
2022-09-25T22:59:05.514Z,55.86
2022-09-25T23:01:38.971Z,55.87
